sensor_id;sensor_type;location;lat;lon;timestamp;pressure;altitude;pressure_sealevel;temperature;humidity
76940;BME280;65885;55.848;35.916;2023-07-31T00:01:38;98598.03;;;13.18;74.54
76940;BME280;65885;55.848;35.916;2023-07-31T00:04:05;98593.06;;;13.14;74.28
76940;BME280;65885;55.848;35.916;2023-07-31T00:06:34;98604.66;;;13.11;73.67
76940;BME280;65885;55.848;35.916;2023-07-31T00:09:02;98601.47;;;13.06;73.94
76940;BME280;65885;55.848;35.916;2023-07-31T00:11:29;98605.38;;;13.00;73.74
76940;BME280;65885;55.848;35.916;2023-07-31T00:13:56;98613.56;;;12.96;73.58
76940;BME280;65885;55.848;35.916;2023-07-31T00:16:24;98605.09;;;12.91;73.79
76940;BME280;65885;55.848;35.916;2023-07-31T00:18:51;98601.09;;;12.85;74.05
76940;BME280;65885;55.848;35.916;2023-07-31T00:21:18;98593.47;;;12.81;75.02
76940;BME280;65885;55.848;35.916;2023-07-31T00:23:47;98584.84;;;12.78;75.55
76940;BME280;65885;55.848;35.916;2023-07-31T00:26:14;98588.31;;;12.79;75.54
76940;BME280;65885;55.848;35.916;2023-07-31T00:28:42;98583.91;;;12.80;76.13
76940;BME280;65885;55.848;35.916;2023-07-31T00:31:09;98592.53;;;12.82;75.92
76940;BME280;65885;55.848;35.916;2023-07-31T00:33:37;98579.28;;;12.83;75.75
76940;BME280;65885;55.848;35.916;2023-07-31T00:36:05;98585.19;;;12.87;75.46
76940;BME280;65885;55.848;35.916;2023-07-31T00:38:32;98584.34;;;12.86;75.23
76940;BME280;65885;55.848;35.916;2023-07-31T00:41:01;98577.31;;;12.87;75.25
76940;BME280;65885;55.848;35.916;2023-07-31T00:43:28;98583.50;;;12.86;75.13
76940;BME280;65885;55.848;35.916;2023-07-31T00:45:55;98580.22;;;12.82;74.74
76940;BME280;65885;55.848;35.916;2023-07-31T00:48:23;98578.75;;;12.78;75.14
76940;BME280;65885;55.848;35.916;2023-07-31T00:50:51;98577.91;;;12.77;75.10
76940;BME280;65885;55.848;35.916;2023-07-31T00:53:18;98586.94;;;12.73;74.79
76940;BME280;65885;55.848;35.916;2023-07-31T00:55:45;98582.72;;;12.71;74.89
76940;BME280;65885;55.848;35.916;2023-07-31T00:58:14;98582.97;;;12.81;75.47
76940;BME280;65885;55.848;35.916;2023-07-31T01:00:42;98585.09;;;13.15;75.69
76940;BME280;65885;55.848;35.916;2023-07-31T01:03:09;98585.09;;;13.68;75.52
76940;BME280;65885;55.848;35.916;2023-07-31T01:05:43;98593.00;;;14.31;73.84
76940;BME280;65885;55.848;35.916;2023-07-31T01:08:17;98582.28;;;14.95;71.78
76940;BME280;65885;55.848;35.916;2023-07-31T01:10:50;98584.91;;;15.54;69.72
76940;BME280;65885;55.848;35.916;2023-07-31T01:13:20;98589.00;;;16.04;67.99
76940;BME280;65885;55.848;35.916;2023-07-31T01:15:48;98586.50;;;16.36;66.33
76940;BME280;65885;55.848;35.916;2023-07-31T01:18:15;98587.81;;;16.42;64.76
76940;BME280;65885;55.848;35.916;2023-07-31T01:20:42;98589.88;;;16.27;64.06
76940;BME280;65885;55.848;35.916;2023-07-31T01:23:36;98591.53;;;15.95;64.28
76940;BME280;65885;55.848;35.916;2023-07-31T01:26:18;98588.91;;;15.60;64.38
76940;BME280;65885;55.848;35.916;2023-07-31T01:28:53;98587.22;;;15.23;64.69
76940;BME280;65885;55.848;35.916;2023-07-31T01:31:24;98583.47;;;14.91;65.47
76940;BME280;65885;55.848;35.916;2023-07-31T01:33:53;98589.16;;;14.61;65.93
76940;BME280;65885;55.848;35.916;2023-07-31T01:36:21;98595.53;;;14.33;66.59
76940;BME280;65885;55.848;35.916;2023-07-31T01:38:49;98590.16;;;14.09;67.18
76940;BME280;65885;55.848;35.916;2023-07-31T01:41:18;98590.81;;;13.87;67.70
76940;BME280;65885;55.848;35.916;2023-07-31T01:43:46;98594.06;;;13.65;68.34
76940;BME280;65885;55.848;35.916;2023-07-31T01:46:13;98594.38;;;13.48;69.66
76940;BME280;65885;55.848;35.916;2023-07-31T01:48:41;98598.03;;;13.32;70.26
76940;BME280;65885;55.848;35.916;2023-07-31T01:51:08;98596.25;;;13.19;71.03
76940;BME280;65885;55.848;35.916;2023-07-31T01:53:35;98598.56;;;13.11;71.42
76940;BME280;65885;55.848;35.916;2023-07-31T01:56:03;98593.91;;;13.14;72.76
76940;BME280;65885;55.848;35.916;2023-07-31T01:58:31;98590.13;;;13.32;73.07
76940;BME280;65885;55.848;35.916;2023-07-31T02:00:59;98596.16;;;13.60;73.16
76940;BME280;65885;55.848;35.916;2023-07-31T02:03:26;98596.72;;;13.91;73.06
76940;BME280;65885;55.848;35.916;2023-07-31T02:05:54;98595.34;;;14.23;72.23
76940;BME280;65885;55.848;35.916;2023-07-31T02:08:22;98594.66;;;14.58;71.28
76940;BME280;65885;55.848;35.916;2023-07-31T02:10:49;98596.03;;;14.87;70.33
76940;BME280;65885;55.848;35.916;2023-07-31T02:13:17;98601.50;;;15.21;69.52
76940;BME280;65885;55.848;35.916;2023-07-31T02:15:46;98598.97;;;15.54;68.61
76940;BME280;65885;55.848;35.916;2023-07-31T02:18:14;98600.28;;;15.84;67.61
76940;BME280;65885;55.848;35.916;2023-07-31T02:20:41;98599.97;;;16.11;66.66
76940;BME280;65885;55.848;35.916;2023-07-31T02:23:08;98599.84;;;16.35;66.25
76940;BME280;65885;55.848;35.916;2023-07-31T02:25:36;98594.66;;;16.56;65.41
76940;BME280;65885;55.848;35.916;2023-07-31T02:28:04;98588.63;;;16.76;64.91
76940;BME280;65885;55.848;35.916;2023-07-31T02:30:31;98590.56;;;16.85;64.19
76940;BME280;65885;55.848;35.916;2023-07-31T02:33:00;98588.41;;;16.79;63.52
76940;BME280;65885;55.848;35.916;2023-07-31T02:35:27;98592.59;;;16.59;63.60
76940;BME280;65885;55.848;35.916;2023-07-31T02:37:54;98595.53;;;16.34;63.79
76940;BME280;65885;55.848;35.916;2023-07-31T02:40:21;98590.69;;;16.05;64.08
76940;BME280;65885;55.848;35.916;2023-07-31T02:42:49;98588.38;;;15.78;64.57
76940;BME280;65885;55.848;35.916;2023-07-31T02:45:16;98584.31;;;15.50;65.11
76940;BME280;65885;55.848;35.916;2023-07-31T02:47:43;98587.09;;;15.25;65.81
76940;BME280;65885;55.848;35.916;2023-07-31T02:50:12;98582.16;;;15.20;67.50
76940;BME280;65885;55.848;35.916;2023-07-31T02:52:39;98581.78;;;15.49;68.79
76940;BME280;65885;55.848;35.916;2023-07-31T02:55:07;98579.88;;;15.97;68.13
76940;BME280;65885;55.848;35.916;2023-07-31T02:57:34;98583.47;;;16.52;67.08
76940;BME280;65885;55.848;35.916;2023-07-31T03:00:02;98583.25;;;17.10;65.78
76940;BME280;65885;55.848;35.916;2023-07-31T03:02:31;98575.28;;;17.63;64.95
76940;BME280;65885;55.848;35.916;2023-07-31T03:04:59;98586.06;;;18.13;63.56
76940;BME280;65885;55.848;35.916;2023-07-31T03:07:27;98585.69;;;18.57;62.83
76940;BME280;65885;55.848;35.916;2023-07-31T03:09:56;98584.56;;;19.00;61.82
76940;BME280;65885;55.848;35.916;2023-07-31T03:12:23;98586.28;;;19.30;61.01
76940;BME280;65885;55.848;35.916;2023-07-31T03:14:50;98590.59;;;19.31;60.01
76940;BME280;65885;55.848;35.916;2023-07-31T03:17:17;98583.47;;;19.12;59.70
76940;BME280;65885;55.848;35.916;2023-07-31T03:19:45;98584.66;;;18.79;59.85
76940;BME280;65885;55.848;35.916;2023-07-31T03:22:12;98586.06;;;18.43;60.35
76940;BME280;65885;55.848;35.916;2023-07-31T03:24:41;98591.19;;;18.05;61.01
76940;BME280;65885;55.848;35.916;2023-07-31T03:27:08;98586.97;;;17.60;61.77
76940;BME280;65885;55.848;35.916;2023-07-31T03:29:35;98587.88;;;17.29;62.82
76940;BME280;65885;55.848;35.916;2023-07-31T03:32:03;98588.22;;;17.03;63.78
76940;BME280;65885;55.848;35.916;2023-07-31T03:34:30;98592.59;;;16.82;64.71
76940;BME280;65885;55.848;35.916;2023-07-31T03:36:59;98587.19;;;16.61;65.42
76940;BME280;65885;55.848;35.916;2023-07-31T03:39:27;98586.84;;;16.43;66.17
76940;BME280;65885;55.848;35.916;2023-07-31T03:41:56;98590.56;;;16.29;66.88
76940;BME280;65885;55.848;35.916;2023-07-31T03:44:23;98581.06;;;16.16;67.29
76940;BME280;65885;55.848;35.916;2023-07-31T03:46:50;98587.34;;;16.03;68.16
76940;BME280;65885;55.848;35.916;2023-07-31T03:49:18;98594.06;;;15.96;68.58
76940;BME280;65885;55.848;35.916;2023-07-31T03:51:45;98584.06;;;15.89;69.19
76940;BME280;65885;55.848;35.916;2023-07-31T03:54:12;98596.06;;;15.81;69.58
76940;BME280;65885;55.848;35.916;2023-07-31T03:56:40;98588.72;;;15.74;70.14
76940;BME280;65885;55.848;35.916;2023-07-31T03:59:09;98586.44;;;15.69;70.68
76940;BME280;65885;55.848;35.916;2023-07-31T04:01:36;98585.59;;;15.69;71.19
76940;BME280;65885;55.848;35.916;2023-07-31T04:04:03;98588.22;;;15.69;71.38
76940;BME280;65885;55.848;35.916;2023-07-31T04:06:31;98579.59;;;15.67;71.96
76940;BME280;65885;55.848;35.916;2023-07-31T04:08:58;98589.31;;;15.66;72.39
76940;BME280;65885;55.848;35.916;2023-07-31T04:11:25;98580.41;;;15.67;72.76
76940;BME280;65885;55.848;35.916;2023-07-31T04:13:53;98590.88;;;15.69;72.88
76940;BME280;65885;55.848;35.916;2023-07-31T04:16:21;98593.19;;;15.73;73.21
76940;BME280;65885;55.848;35.916;2023-07-31T04:18:49;98585.84;;;15.77;73.28
76940;BME280;65885;55.848;35.916;2023-07-31T04:21:16;98586.47;;;15.80;73.51
76940;BME280;65885;55.848;35.916;2023-07-31T04:23:43;98594.88;;;15.86;73.59
76940;BME280;65885;55.848;35.916;2023-07-31T04:26:10;98598.00;;;15.91;73.65
76940;BME280;65885;55.848;35.916;2023-07-31T04:28:38;98604.75;;;15.95;73.85
76940;BME280;65885;55.848;35.916;2023-07-31T04:31:05;98601.75;;;15.99;73.82
76940;BME280;65885;55.848;35.916;2023-07-31T04:33:34;98593.59;;;16.02;74.13
76940;BME280;65885;55.848;35.916;2023-07-31T04:36:01;98602.13;;;16.06;74.46
76940;BME280;65885;55.848;35.916;2023-07-31T04:38:28;98606.09;;;16.12;74.43
76940;BME280;65885;55.848;35.916;2023-07-31T04:40:55;98601.19;;;16.18;74.63
76940;BME280;65885;55.848;35.916;2023-07-31T04:43:23;98597.19;;;16.24;74.85
76940;BME280;65885;55.848;35.916;2023-07-31T04:45:50;98602.97;;;16.29;74.91
76940;BME280;65885;55.848;35.916;2023-07-31T04:48:19;98610.19;;;16.38;75.16
76940;BME280;65885;55.848;35.916;2023-07-31T04:50:48;98605.13;;;16.46;75.29
76940;BME280;65885;55.848;35.916;2023-07-31T04:53:15;98601.28;;;16.50;75.27
76940;BME280;65885;55.848;35.916;2023-07-31T04:55:42;98608.75;;;16.56;75.53
76940;BME280;65885;55.848;35.916;2023-07-31T04:58:10;98607.16;;;16.65;75.62
76940;BME280;65885;55.848;35.916;2023-07-31T05:00:37;98613.31;;;16.77;75.57
76940;BME280;65885;55.848;35.916;2023-07-31T05:03:04;98607.88;;;16.89;75.45
76940;BME280;65885;55.848;35.916;2023-07-31T05:05:32;98602.44;;;17.02;75.67
76940;BME280;65885;55.848;35.916;2023-07-31T05:08:01;98602.16;;;17.16;75.63
76940;BME280;65885;55.848;35.916;2023-07-31T05:10:28;98604.59;;;17.29;75.41
76940;BME280;65885;55.848;35.916;2023-07-31T05:12:56;98602.91;;;17.39;75.03
76940;BME280;65885;55.848;35.916;2023-07-31T05:15:23;98601.03;;;17.51;74.74
76940;BME280;65885;55.848;35.916;2023-07-31T05:17:50;98591.22;;;17.63;74.39
76940;BME280;65885;55.848;35.916;2023-07-31T05:20:18;98598.28;;;17.73;73.93
76940;BME280;65885;55.848;35.916;2023-07-31T05:22:45;98600.34;;;17.91;74.20
76940;BME280;65885;55.848;35.916;2023-07-31T05:25:14;98597.50;;;18.03;73.94
76940;BME280;65885;55.848;35.916;2023-07-31T05:27:41;98595.47;;;18.17;73.54
76940;BME280;65885;55.848;35.916;2023-07-31T05:30:09;98591.75;;;18.29;73.60
76940;BME280;65885;55.848;35.916;2023-07-31T05:32:36;98589.84;;;18.41;73.14
76940;BME280;65885;55.848;35.916;2023-07-31T05:35:04;98593.09;;;18.54;73.54
76940;BME280;65885;55.848;35.916;2023-07-31T05:37:31;98594.06;;;18.83;74.42
76940;BME280;65885;55.848;35.916;2023-07-31T05:39:59;98597.31;;;19.45;74.59
76940;BME280;65885;55.848;35.916;2023-07-31T05:42:27;98600.97;;;20.30;73.06
76940;BME280;65885;55.848;35.916;2023-07-31T05:44:54;98593.75;;;21.22;70.90
76940;BME280;65885;55.848;35.916;2023-07-31T05:47:22;98600.88;;;22.11;68.34
76940;BME280;65885;55.848;35.916;2023-07-31T05:49:49;98599.44;;;22.93;66.95
76940;BME280;65885;55.848;35.916;2023-07-31T05:52:18;98596.19;;;23.72;64.63
76940;BME280;65885;55.848;35.916;2023-07-31T05:54:45;98597.16;;;24.37;63.61
76940;BME280;65885;55.848;35.916;2023-07-31T05:57:12;98601.13;;;24.88;62.57
76940;BME280;65885;55.848;35.916;2023-07-31T05:59:41;98596.03;;;25.32;62.33
76940;BME280;65885;55.848;35.916;2023-07-31T06:02:08;98598.53;;;25.57;61.93
76940;BME280;65885;55.848;35.916;2023-07-31T06:04:36;98591.66;;;25.54;59.00
76940;BME280;65885;55.848;35.916;2023-07-31T06:07:03;98598.59;;;25.49;60.73
76940;BME280;65885;55.848;35.916;2023-07-31T06:09:31;98602.66;;;25.44;61.23
76940;BME280;65885;55.848;35.916;2023-07-31T06:11:58;98599.97;;;25.44;62.21
76940;BME280;65885;55.848;35.916;2023-07-31T06:14:25;98594.25;;;25.48;62.79
76940;BME280;65885;55.848;35.916;2023-07-31T06:16:54;98603.19;;;25.63;62.96
76940;BME280;65885;55.848;35.916;2023-07-31T06:19:21;98595.69;;;25.81;62.98
76940;BME280;65885;55.848;35.916;2023-07-31T06:21:49;98600.91;;;25.97;61.00
76940;BME280;65885;55.848;35.916;2023-07-31T06:24:16;98608.06;;;26.20;61.73
76940;BME280;65885;55.848;35.916;2023-07-31T06:26:46;98603.94;;;26.47;62.24
76940;BME280;65885;55.848;35.916;2023-07-31T06:29:13;98601.59;;;26.73;62.22
76940;BME280;65885;55.848;35.916;2023-07-31T06:31:41;98612.50;;;27.01;61.77
76940;BME280;65885;55.848;35.916;2023-07-31T06:34:10;98601.69;;;27.31;62.08
76940;BME280;65885;55.848;35.916;2023-07-31T06:36:37;98601.78;;;27.59;61.96
76940;BME280;65885;55.848;35.916;2023-07-31T06:39:04;98603.88;;;27.85;60.90
76940;BME280;65885;55.848;35.916;2023-07-31T06:41:32;98597.84;;;28.11;61.29
76940;BME280;65885;55.848;35.916;2023-07-31T06:43:59;98606.38;;;28.36;59.79
76940;BME280;65885;55.848;35.916;2023-07-31T06:46:26;98605.66;;;28.62;60.44
76940;BME280;65885;55.848;35.916;2023-07-31T06:48:53;98612.03;;;28.89;59.86
76940;BME280;65885;55.848;35.916;2023-07-31T06:51:22;98601.34;;;29.15;58.37
76940;BME280;65885;55.848;35.916;2023-07-31T06:53:49;98605.63;;;29.58;57.25
76940;BME280;65885;55.848;35.916;2023-07-31T06:56:17;98606.47;;;30.04;56.42
76940;BME280;65885;55.848;35.916;2023-07-31T06:58:44;98607.69;;;30.42;55.73
76940;BME280;65885;55.848;35.916;2023-07-31T07:01:11;98602.84;;;30.63;54.83
76940;BME280;65885;55.848;35.916;2023-07-31T07:03:38;98609.13;;;30.71;52.48
76940;BME280;65885;55.848;35.916;2023-07-31T07:06:06;98603.47;;;30.72;53.48
76940;BME280;65885;55.848;35.916;2023-07-31T07:08:34;98611.16;;;30.75;54.19
76940;BME280;65885;55.848;35.916;2023-07-31T07:11:02;98606.38;;;30.77;54.16
76940;BME280;65885;55.848;35.916;2023-07-31T07:13:29;98612.63;;;30.84;54.33
76940;BME280;65885;55.848;35.916;2023-07-31T07:15:56;98600.63;;;31.05;53.23
76940;BME280;65885;55.848;35.916;2023-07-31T07:18:23;98602.72;;;31.48;52.00
76940;BME280;65885;55.848;35.916;2023-07-31T07:20:53;98599.84;;;31.99;49.87
76940;BME280;65885;55.848;35.916;2023-07-31T07:23:20;98593.69;;;32.36;49.96
76940;BME280;65885;55.848;35.916;2023-07-31T07:25:49;98599.13;;;32.54;49.07
76940;BME280;65885;55.848;35.916;2023-07-31T07:28:17;98601.66;;;32.49;47.18
76940;BME280;65885;55.848;35.916;2023-07-31T07:30:44;98604.97;;;32.33;47.09
76940;BME280;65885;55.848;35.916;2023-07-31T07:33:12;98596.09;;;32.19;48.55
76940;BME280;65885;55.848;35.916;2023-07-31T07:35:39;98605.00;;;32.08;48.31
76940;BME280;65885;55.848;35.916;2023-07-31T07:38:07;98600.72;;;31.93;46.74
76940;BME280;65885;55.848;35.916;2023-07-31T07:40:38;98607.50;;;31.84;48.49
76940;BME280;65885;55.848;35.916;2023-07-31T07:43:08;98600.78;;;31.87;47.72
76940;BME280;65885;55.848;35.916;2023-07-31T07:45:35;98599.84;;;31.99;48.30
76940;BME280;65885;55.848;35.916;2023-07-31T07:48:03;98600.16;;;32.10;47.00
76940;BME280;65885;55.848;35.916;2023-07-31T07:50:30;98611.78;;;32.17;47.49
76940;BME280;65885;55.848;35.916;2023-07-31T07:52:58;98607.13;;;32.24;47.06
76940;BME280;65885;55.848;35.916;2023-07-31T07:55:26;98615.44;;;32.29;45.93
76940;BME280;65885;55.848;35.916;2023-07-31T07:57:53;98609.19;;;32.28;46.16
76940;BME280;65885;55.848;35.916;2023-07-31T08:00:22;98614.84;;;32.27;47.18
76940;BME280;65885;55.848;35.916;2023-07-31T08:02:49;98605.41;;;32.29;46.96
76940;BME280;65885;55.848;35.916;2023-07-31T08:05:16;98609.06;;;32.42;47.02
76940;BME280;65885;55.848;35.916;2023-07-31T08:07:44;98606.13;;;32.62;47.03
76940;BME280;65885;55.848;35.916;2023-07-31T08:10:11;98606.34;;;32.78;44.03
76940;BME280;65885;55.848;35.916;2023-07-31T08:12:38;98615.06;;;32.87;41.21
76940;BME280;65885;55.848;35.916;2023-07-31T08:15:07;98611.94;;;32.83;38.62
76940;BME280;65885;55.848;35.916;2023-07-31T08:17:36;98609.38;;;32.70;37.96
76940;BME280;65885;55.848;35.916;2023-07-31T08:20:04;98605.59;;;32.53;38.67
76940;BME280;65885;55.848;35.916;2023-07-31T08:22:31;98610.41;;;32.33;40.48
76940;BME280;65885;55.848;35.916;2023-07-31T08:24:59;98608.47;;;32.15;40.04
76940;BME280;65885;55.848;35.916;2023-07-31T08:27:26;98608.22;;;31.98;39.33
76940;BME280;65885;55.848;35.916;2023-07-31T08:29:54;98615.03;;;31.82;39.39
76940;BME280;65885;55.848;35.916;2023-07-31T08:32:21;98614.91;;;31.64;38.02
76940;BME280;65885;55.848;35.916;2023-07-31T08:34:50;98613.19;;;31.44;38.72
76940;BME280;65885;55.848;35.916;2023-07-31T08:37:17;98616.81;;;31.25;38.52
76940;BME280;65885;55.848;35.916;2023-07-31T08:39:44;98612.94;;;31.08;39.87
76940;BME280;65885;55.848;35.916;2023-07-31T08:42:12;98612.97;;;30.94;39.50
76940;BME280;65885;55.848;35.916;2023-07-31T08:44:39;98610.09;;;30.83;39.04
76940;BME280;65885;55.848;35.916;2023-07-31T08:47:07;98614.09;;;30.74;39.93
76940;BME280;65885;55.848;35.916;2023-07-31T08:49:34;98613.28;;;30.66;39.91
76940;BME280;65885;55.848;35.916;2023-07-31T08:52:06;98615.16;;;30.59;39.96
76940;BME280;65885;55.848;35.916;2023-07-31T08:54:34;98618.91;;;30.52;40.14
76940;BME280;65885;55.848;35.916;2023-07-31T08:57:01;98618.53;;;30.42;39.58
76940;BME280;65885;55.848;35.916;2023-07-31T08:59:30;98621.88;;;30.30;39.79
76940;BME280;65885;55.848;35.916;2023-07-31T09:02:05;98623.78;;;30.17;41.23
76940;BME280;65885;55.848;35.916;2023-07-31T09:04:33;98622.91;;;30.03;42.88
76940;BME280;65885;55.848;35.916;2023-07-31T09:07:02;98618.13;;;29.92;43.21
76940;BME280;65885;55.848;35.916;2023-07-31T09:09:31;98619.38;;;29.82;43.53
76940;BME280;65885;55.848;35.916;2023-07-31T09:11:59;98620.41;;;29.75;43.33
76940;BME280;65885;55.848;35.916;2023-07-31T09:14:26;98622.72;;;29.78;45.15
76940;BME280;65885;55.848;35.916;2023-07-31T09:16:55;98624.19;;;29.94;45.83
76940;BME280;65885;55.848;35.916;2023-07-31T09:19:29;98609.81;;;30.20;45.75
76940;BME280;65885;55.848;35.916;2023-07-31T09:21:56;98609.81;;;30.39;44.46
76940;BME280;65885;55.848;35.916;2023-07-31T09:24:27;98610.75;;;30.65;45.57
76940;BME280;65885;55.848;35.916;2023-07-31T09:26:59;98612.19;;;30.87;44.80
76940;BME280;65885;55.848;35.916;2023-07-31T09:29:27;98609.56;;;31.06;43.86
76940;BME280;65885;55.848;35.916;2023-07-31T09:31:55;98608.69;;;31.18;42.94
76940;BME280;65885;55.848;35.916;2023-07-31T09:34:29;98613.66;;;31.28;40.98
76940;BME280;65885;55.848;35.916;2023-07-31T09:37:01;98613.19;;;31.44;39.99
76940;BME280;65885;55.848;35.916;2023-07-31T09:39:29;98616.13;;;31.68;38.44
76940;BME280;65885;55.848;35.916;2023-07-31T09:41:59;98611.69;;;31.80;37.17
76940;BME280;65885;55.848;35.916;2023-07-31T09:44:41;98612.50;;;31.81;37.95
76940;BME280;65885;55.848;35.916;2023-07-31T09:47:21;98609.22;;;31.72;38.90
76940;BME280;65885;55.848;35.916;2023-07-31T09:49:49;98622.66;;;31.60;39.11
76940;BME280;65885;55.848;35.916;2023-07-31T09:52:17;98622.75;;;31.47;38.57
76940;BME280;65885;55.848;35.916;2023-07-31T09:54:44;98617.41;;;31.34;39.36
76940;BME280;65885;55.848;35.916;2023-07-31T09:57:13;98622.00;;;31.33;39.70
76940;BME280;65885;55.848;35.916;2023-07-31T09:59:43;98622.97;;;31.45;39.29
76940;BME280;65885;55.848;35.916;2023-07-31T10:02:15;98629.34;;;31.58;39.31
76940;BME280;65885;55.848;35.916;2023-07-31T10:04:44;98632.19;;;31.69;39.84
76940;BME280;65885;55.848;35.916;2023-07-31T10:07:13;98625.25;;;31.80;39.17
76940;BME280;65885;55.848;35.916;2023-07-31T10:09:41;98628.75;;;31.87;40.16
76940;BME280;65885;55.848;35.916;2023-07-31T10:12:10;98629.16;;;31.91;40.27
76940;BME280;65885;55.848;35.916;2023-07-31T10:14:41;98635.63;;;31.90;39.91
76940;BME280;65885;55.848;35.916;2023-07-31T10:17:09;98632.50;;;31.86;39.81
76940;BME280;65885;55.848;35.916;2023-07-31T10:19:38;98636.53;;;31.77;40.14
76940;BME280;65885;55.848;35.916;2023-07-31T10:22:06;98631.19;;;31.64;40.31
76940;BME280;65885;55.848;35.916;2023-07-31T10:24:35;98630.66;;;31.48;40.27
76940;BME280;65885;55.848;35.916;2023-07-31T10:27:04;98630.72;;;31.35;40.13
76940;BME280;65885;55.848;35.916;2023-07-31T10:29:32;98629.31;;;31.19;40.00
76940;BME280;65885;55.848;35.916;2023-07-31T10:32:01;98634.19;;;31.04;40.05
76940;BME280;65885;55.848;35.916;2023-07-31T10:34:33;98633.41;;;30.90;40.35
76940;BME280;65885;55.848;35.916;2023-07-31T10:37:20;98632.44;;;30.78;40.86
76940;BME280;65885;55.848;35.916;2023-07-31T10:39:59;98623.91;;;30.68;39.93
76940;BME280;65885;55.848;35.916;2023-07-31T10:42:34;98626.00;;;30.66;41.20
76940;BME280;65885;55.848;35.916;2023-07-31T10:45:03;98631.00;;;30.69;41.98
76940;BME280;65885;55.848;35.916;2023-07-31T10:47:38;98630.75;;;30.77;42.84
76940;BME280;65885;55.848;35.916;2023-07-31T10:50:13;98623.44;;;30.84;42.26
76940;BME280;65885;55.848;35.916;2023-07-31T10:52:44;98623.84;;;30.88;43.14
76940;BME280;65885;55.848;35.916;2023-07-31T10:55:26;98619.09;;;30.83;41.31
76940;BME280;65885;55.848;35.916;2023-07-31T10:57:54;98623.00;;;30.87;42.96
76940;BME280;65885;55.848;35.916;2023-07-31T11:00:25;98622.19;;;30.80;40.97
76940;BME280;65885;55.848;35.916;2023-07-31T11:03:01;98609.31;;;30.62;40.38
76940;BME280;65885;55.848;35.916;2023-07-31T11:05:47;98609.97;;;30.45;40.08
76940;BME280;65885;55.848;35.916;2023-07-31T11:08:17;98613.78;;;30.17;40.75
76940;BME280;65885;55.848;35.916;2023-07-31T11:10:46;98616.69;;;30.02;43.50
76940;BME280;65885;55.848;35.916;2023-07-31T11:13:17;98631.25;;;29.88;44.75
76940;BME280;65885;55.848;35.916;2023-07-31T11:15:44;98625.81;;;29.68;44.86
76940;BME280;65885;55.848;35.916;2023-07-31T11:18:13;98626.13;;;29.39;44.11
76940;BME280;65885;55.848;35.916;2023-07-31T11:20:42;98631.88;;;29.09;44.21
76940;BME280;65885;55.848;35.916;2023-07-31T11:23:10;98636.78;;;28.92;45.39
76940;BME280;65885;55.848;35.916;2023-07-31T11:25:42;98640.84;;;28.75;46.67
76940;BME280;65885;55.848;35.916;2023-07-31T11:28:19;98660.25;;;28.57;47.82
76940;BME280;65885;55.848;35.916;2023-07-31T11:30:46;98668.41;;;28.36;47.00
76940;BME280;65885;55.848;35.916;2023-07-31T11:33:16;98682.63;;;28.02;46.03
76940;BME280;65885;55.848;35.916;2023-07-31T11:35:44;98681.50;;;27.53;45.63
76940;BME280;65885;55.848;35.916;2023-07-31T11:38:14;98687.59;;;26.96;46.26
76940;BME280;65885;55.848;35.916;2023-07-31T11:40:48;98691.25;;;26.36;47.32
76940;BME280;65885;55.848;35.916;2023-07-31T11:43:15;98690.75;;;25.80;48.59
76940;BME280;65885;55.848;35.916;2023-07-31T11:45:45;98698.06;;;25.32;50.01
76940;BME280;65885;55.848;35.916;2023-07-31T11:48:20;98692.53;;;24.86;51.54
76940;BME280;65885;55.848;35.916;2023-07-31T11:50:49;98683.78;;;24.37;53.95
76940;BME280;65885;55.848;35.916;2023-07-31T11:53:20;98685.28;;;23.91;55.76
76940;BME280;65885;55.848;35.916;2023-07-31T11:55:49;98678.16;;;23.57;57.83
76940;BME280;65885;55.848;35.916;2023-07-31T11:58:17;98679.31;;;23.38;59.50
76940;BME280;65885;55.848;35.916;2023-07-31T12:00:46;98680.78;;;23.24;61.31
76940;BME280;65885;55.848;35.916;2023-07-31T12:03:13;98682.59;;;23.16;61.88
76940;BME280;65885;55.848;35.916;2023-07-31T12:05:42;98674.56;;;23.16;63.16
76940;BME280;65885;55.848;35.916;2023-07-31T12:08:10;98690.66;;;23.24;63.06
76940;BME280;65885;55.848;35.916;2023-07-31T12:10:38;98684.50;;;23.32;63.05
76940;BME280;65885;55.848;35.916;2023-07-31T12:13:08;98687.84;;;23.34;63.42
76940;BME280;65885;55.848;35.916;2023-07-31T12:15:40;98680.47;;;23.28;63.25
76940;BME280;65885;55.848;35.916;2023-07-31T12:18:10;98683.28;;;23.18;64.15
76940;BME280;65885;55.848;35.916;2023-07-31T12:20:44;98681.41;;;23.10;64.51
76940;BME280;65885;55.848;35.916;2023-07-31T12:23:17;98681.78;;;23.23;65.02
76940;BME280;65885;55.848;35.916;2023-07-31T12:25:44;98682.69;;;23.57;64.99
76940;BME280;65885;55.848;35.916;2023-07-31T12:28:12;98678.25;;;23.98;63.76
76940;BME280;65885;55.848;35.916;2023-07-31T12:30:40;98669.19;;;24.23;62.34
76940;BME280;65885;55.848;35.916;2023-07-31T12:33:14;98675.72;;;24.45;62.47
76940;BME280;65885;55.848;35.916;2023-07-31T12:35:45;98676.50;;;24.62;62.69
76940;BME280;65885;55.848;35.916;2023-07-31T12:38:13;98681.34;;;24.75;63.16
76940;BME280;65885;55.848;35.916;2023-07-31T12:40:41;98678.63;;;24.83;62.91
76940;BME280;65885;55.848;35.916;2023-07-31T12:43:09;98679.44;;;24.83;62.86
76940;BME280;65885;55.848;35.916;2023-07-31T12:45:36;98682.31;;;24.82;62.50
76940;BME280;65885;55.848;35.916;2023-07-31T12:48:04;98682.16;;;24.75;62.99
76940;BME280;65885;55.848;35.916;2023-07-31T12:50:31;98676.81;;;24.75;63.95
76940;BME280;65885;55.848;35.916;2023-07-31T12:53:00;98682.78;;;24.85;63.91
76940;BME280;65885;55.848;35.916;2023-07-31T12:55:27;98680.44;;;24.90;63.17
76940;BME280;65885;55.848;35.916;2023-07-31T12:57:55;98689.00;;;24.86;63.46